Moody AFB, Georgia
Current Conditions -  °F | °C
As of 7:58 PM on Wednesday 26 Nov 2014 (Local Time) from KVAD Reporting Station
Clear Clear  
Wind Chill:   Ceiling: Unl
Heat Index:   Visibility: 10mi
Dew Point:   Wind: 3mph
Humidity: 80%   Direction: 240°WSW
Pressure: 30.18"   Gusts: NA
Location:  30.9753°N, 83.2042°W
Report Text: KVAD 270058Z AUTO 24003KT 10SM CLR 07/04 A3018 RMK AO2 SLP223 T00710039 $
Loading
Personal Weather Stations






























Interactive Weather Map New forecast layout! Learn more

10-Day Weather Forecast

Advertisements
Track Severe Weather on mobile